Time;durP1;ratioP1;P1;durP2;ratioP2;P2;SDS_P1;SDS_P2;PMS_P1;PMS_P2;Temp;Humidity;BMP_temperature;BMP_pressure;BME280_temperature;BME280_humidity;BME280_pressure;Samples;Min_cycle;Max_cycle;Signal;HPM_P1;HPM_P2
2021/11/28 00:02:23;;;;;;;7.45;4.05;;;;;;;0.97;100.00;98604.16;5193448;28;20065;-80
2021/11/28 00:04:54;;;;;;;7.45;3.38;;;;;;;1.03;100.00;98602.25;5192622;28;20403;-80
2021/11/28 00:07:32;;;;;;;8.15;3.90;;;;;;;0.99;100.00;98607.53;5196306;28;20041;-80
2021/11/28 00:15:18;;;;;;;6.70;3.83;;;;;;;1.04;100.00;98603.94;5196440;28;20033;-80
2021/11/28 00:17:48;;;;;;;7.90;4.43;;;;;;;1.05;100.00;98605.63;5187607;28;20034;-80
2021/11/28 00:20:18;;;;;;;11.15;4.50;;;;;;;1.10;100.00;98605.50;5190253;28;20044;-80
2021/11/28 00:22:50;;;;;;;7.78;3.92;;;;;;;1.05;100.00;98600.47;5195302;28;20057;-80
2021/11/28 00:25:22;;;;;;;8.13;4.10;;;;;;;1.10;100.00;98608.06;5193693;28;20033;-80
2021/11/28 00:27:52;;;;;;;10.80;4.57;;;;;;;1.11;100.00;98605.47;5184721;28;20083;-80
2021/11/28 00:30:26;;;;;;;9.70;4.75;;;;;;;1.15;100.00;98609.63;5185437;28;20477;-80
2021/11/28 00:32:59;;;;;;;8.70;3.85;;;;;;;1.09;100.00;98612.34;5187693;28;20109;-80
2021/11/28 00:35:29;;;;;;;8.73;4.30;;;;;;;1.11;100.00;98602.91;5188582;28;20059;-80
2021/11/28 00:38:00;;;;;;;9.57;4.68;;;;;;;1.10;100.00;98608.91;5194021;28;20037;-80
2021/11/28 00:40:30;;;;;;;8.10;3.90;;;;;;;1.02;100.00;98615.16;5199726;28;20037;-80
2021/11/28 00:43:01;;;;;;;8.75;4.30;;;;;;;0.99;100.00;98616.09;5201376;28;20028;-80
2021/11/28 00:45:31;;;;;;;8.05;4.45;;;;;;;0.97;100.00;98614.44;5198652;28;20033;-80
2021/11/28 00:48:02;;;;;;;9.73;4.00;;;;;;;0.95;100.00;98613.66;5192396;28;20030;-80
2021/11/28 00:50:50;;;;;;;6.15;3.88;;;;;;;0.96;100.00;98618.78;5192133;28;20022;-81
2021/11/28 00:53:20;;;;;;;8.95;4.18;;;;;;;0.92;100.00;98616.31;5200508;28;20116;-81
2021/11/28 00:55:50;;;;;;;8.15;4.40;;;;;;;0.96;100.00;98616.19;5202704;28;20259;-80
2021/11/28 00:58:21;;;;;;;8.18;4.30;;;;;;;0.96;100.00;98615.34;5196932;28;20033;-81
2021/11/28 01:00:51;;;;;;;8.55;4.30;;;;;;;1.01;100.00;98610.91;5196233;28;20026;-81
2021/11/28 01:03:22;;;;;;;8.50;4.50;;;;;;;0.92;100.00;98614.56;5194159;28;20033;-81
2021/11/28 01:05:53;;;;;;;8.02;3.90;;;;;;;0.92;100.00;98624.03;5190189;28;20022;-81
2021/11/28 01:08:24;;;;;;;9.73;4.40;;;;;;;0.92;100.00;98622.28;5197523;28;20137;-81
2021/11/28 01:10:54;;;;;;;8.52;4.53;;;;;;;0.90;100.00;98626.63;5201462;28;20045;-81
2021/11/28 01:13:25;;;;;;;8.93;4.47;;;;;;;0.91;100.00;98622.34;5207503;28;20021;-81
2021/11/28 01:15:55;;;;;;;11.90;4.25;;;;;;;0.98;100.00;98627.28;5194358;28;20030;-81
2021/11/28 01:18:27;;;;;;;11.25;4.93;;;;;;;1.04;100.00;98644.25;5191306;28;20038;-81
2021/11/28 01:20:58;;;;;;;7.72;4.38;;;;;;;1.03;100.00;98638.25;5193437;28;20579;-81
2021/11/28 01:23:29;;;;;;;7.07;4.10;;;;;;;1.01;100.00;98642.59;5199849;28;20065;-81
2021/11/28 01:25:59;;;;;;;8.13;4.25;;;;;;;1.06;100.00;98643.31;5201403;28;20021;-81
2021/11/28 01:28:30;;;;;;;9.32;4.13;;;;;;;1.05;100.00;98646.78;5188148;28;20045;-81
2021/11/28 01:31:01;;;;;;;8.38;4.55;;;;;;;1.06;100.00;98648.44;5188028;28;20080;-80
2021/11/28 01:33:32;;;;;;;10.73;4.13;;;;;;;1.11;100.00;98645.75;5198296;28;20025;-80
2021/11/28 01:36:02;;;;;;;7.45;3.50;;;;;;;1.07;100.00;98650.13;5195655;28;20029;-81
2021/11/28 01:38:33;;;;;;;10.73;3.83;;;;;;;1.10;100.00;98650.03;5202224;28;20035;-81
2021/11/28 01:41:03;;;;;;;9.45;3.58;;;;;;;1.05;100.00;98648.50;5199807;28;20033;-81
2021/11/28 01:43:34;;;;;;;8.20;4.00;;;;;;;1.05;100.00;98644.19;5204492;28;20025;-81
2021/11/28 01:46:04;;;;;;;8.77;4.05;;;;;;;1.09;100.00;98647.53;5197150;28;20085;-81
2021/11/28 01:48:35;;;;;;;9.80;3.80;;;;;;;1.11;100.00;98648.31;5194320;28;20480;-81
2021/11/28 01:51:06;;;;;;;6.20;3.38;;;;;;;1.17;100.00;98653.28;5200932;28;20032;-81
2021/11/28 01:53:37;;;;;;;7.47;3.38;;;;;;;0.93;100.00;98657.38;5204115;28;20022;-81
2021/11/28 01:56:07;;;;;;;7.15;3.42;;;;;;;1.00;100.00;98664.06;5199664;28;20029;-81
2021/11/28 01:58:38;;;;;;;8.82;3.78;;;;;;;0.91;100.00;98666.88;5195480;28;20034;-81
2021/11/28 02:01:12;;;;;;;7.35;3.53;;;;;;;0.82;100.00;98667.16;5200244;28;20403;-81
2021/11/28 02:03:44;;;;;;;5.55;2.92;;;;;;;0.84;100.00;98665.38;5194170;28;20480;-81
2021/11/28 02:06:18;;;;;;;5.78;3.00;;;;;;;0.78;100.00;98667.28;5202174;28;20102;-81
2021/11/28 02:08:49;;;;;;;10.43;3.25;;;;;;;0.61;100.00;98667.72;5197185;28;20443;-81
2021/11/28 02:11:19;;;;;;;7.95;3.00;;;;;;;0.63;100.00;98663.41;5191101;28;20088;-81
2021/11/28 02:13:50;;;;;;;8.45;3.10;;;;;;;0.60;100.00;98667.75;5196551;28;20117;-81
2021/11/28 02:16:20;;;;;;;5.90;2.85;;;;;;;0.51;100.00;98666.28;5197032;28;20472;-81
2021/11/28 02:18:51;;;;;;;10.02;3.22;;;;;;;0.40;100.00;98665.69;5201185;28;20615;-81
2021/11/28 02:21:21;;;;;;;8.80;3.17;;;;;;;0.42;100.00;98663.94;5197121;28;20033;-82
2021/11/28 02:23:51;;;;;;;6.13;3.17;;;;;;;0.43;100.00;98655.38;5202254;28;20036;-82
2021/11/28 02:26:22;;;;;;;6.43;3.00;;;;;;;0.41;100.00;98657.13;5200355;28;20029;-82
2021/11/28 02:28:54;;;;;;;6.53;3.15;;;;;;;0.37;100.00;98658.09;5195586;28;20029;-81
2021/11/28 02:31:24;;;;;;;10.15;2.78;;;;;;;0.33;100.00;98659.06;5189419;28;20072;-81
2021/11/28 02:33:54;;;;;;;5.30;2.88;;;;;;;0.36;100.00;98653.84;5192486;28;20112;-81
2021/11/28 02:36:25;;;;;;;5.80;3.10;;;;;;;0.40;100.00;98662.31;5188645;28;20522;-81
2021/11/28 02:38:55;;;;;;;8.88;3.50;;;;;;;0.41;100.00;98656.28;5183135;28;20018;-81
2021/11/28 02:41:26;;;;;;;5.97;3.05;;;;;;;0.36;100.00;98653.84;5202403;28;20029;-82
2021/11/28 02:43:57;;;;;;;8.48;3.33;;;;;;;0.37;100.00;98668.34;5199279;28;20399;-82
2021/11/28 02:46:27;;;;;;;7.65;3.30;;;;;;;0.35;100.00;98661.59;5197939;28;20022;-82
2021/11/28 02:48:58;;;;;;;6.53;2.90;;;;;;;0.34;100.00;98660.75;5195716;28;20029;-82
2021/11/28 02:51:28;;;;;;;7.47;3.15;;;;;;;0.23;100.00;98662.72;5197844;28;20026;-82
2021/11/28 02:53:58;;;;;;;4.75;2.88;;;;;;;0.26;100.00;98662.69;5199434;28;20025;-82
2021/11/28 02:56:29;;;;;;;7.05;2.90;;;;;;;0.30;100.00;98671.13;5202232;28;20109;-82
2021/11/28 02:59:00;;;;;;;5.30;2.90;;;;;;;0.30;100.00;98665.97;5203281;28;20158;-82
2021/11/28 03:01:31;;;;;;;10.57;3.42;;;;;;;0.24;100.00;98658.44;5193701;28;20022;-82
2021/11/28 03:04:01;;;;;;;6.50;3.17;;;;;;;0.16;100.00;98656.06;5200516;28;20040;-82
2021/11/28 03:06:32;;;;;;;9.45;3.47;;;;;;;0.13;100.00;98657.88;5200477;28;20025;-82
2021/11/28 03:09:04;;;;;;;5.38;2.75;;;;;;;0.20;100.00;98664.56;5208055;28;20495;-83
2021/11/28 03:11:34;;;;;;;7.18;3.17;;;;;;;0.19;100.00;98652.59;5194466;28;20025;-82
2021/11/28 03:14:05;;;;;;;5.68;2.67;;;;;;;0.03;100.00;98664.94;5195864;28;20033;-82
2021/11/28 03:16:35;;;;;;;6.32;3.13;;;;;;;-0.03;100.00;98665.09;5198445;28;20022;-82
2021/11/28 03:19:06;;;;;;;5.68;2.65;;;;;;;0.01;100.00;98663.31;5197941;28;20287;-82
2021/11/28 03:21:38;;;;;;;5.75;2.97;;;;;;;0.08;100.00;98664.84;5201967;28;20451;-82
2021/11/28 03:24:09;;;;;;;4.95;2.88;;;;;;;0.06;100.00;98658.91;5200748;28;20026;-82
2021/11/28 03:26:41;;;;;;;5.63;2.78;;;;;;;0.08;100.00;98657.16;5204269;28;20029;-83
2021/11/28 03:29:15;;;;;;;7.35;3.20;;;;;;;0.10;100.00;98653.66;5201656;28;20025;-81
2021/11/28 03:31:52;;;;;;;4.07;2.27;;;;;;;0.06;100.00;98651.22;5199297;28;20056;-82
2021/11/28 03:34:23;;;;;;;4.90;3.10;;;;;;;0.12;100.00;98663.88;5200678;28;20342;-82
2021/11/28 03:36:57;;;;;;;5.47;2.95;;;;;;;0.13;100.00;98656.16;5200471;28;20068;-82
2021/11/28 03:39:28;;;;;;;7.75;3.13;;;;;;;0.12;100.00;98649.34;5190214;28;20034;-81
2021/11/28 03:42:02;;;;;;;7.10;3.25;;;;;;;0.12;100.00;98659.59;5192990;28;20499;-83
2021/11/28 03:44:33;;;;;;;6.13;2.90;;;;;;;0.07;100.00;98661.41;5200067;28;20435;-83
2021/11/28 03:47:04;;;;;;;5.68;3.13;;;;;;;0.11;100.00;98650.22;5192612;28;20030;-83
2021/11/28 03:49:34;;;;;;;5.70;3.17;;;;;;;0.07;100.00;98645.19;5197920;28;20264;-83
2021/11/28 03:52:05;;;;;;;5.30;2.85;;;;;;;0.21;100.00;98649.09;5202834;28;20060;-83
2021/11/28 03:54:36;;;;;;;8.35;2.88;;;;;;;0.15;100.00;98649.25;5195467;28;20109;-82
2021/11/28 03:57:06;;;;;;;6.07;2.95;;;;;;;0.12;100.00;98638.22;5194416;28;20031;-83
2021/11/28 03:59:37;;;;;;;8.95;3.00;;;;;;;0.26;100.00;98642.13;5198604;28;20116;-83
2021/11/28 04:02:07;;;;;;;7.47;2.95;;;;;;;0.30;100.00;98641.16;5192486;28;20026;-83
2021/11/28 04:04:38;;;;;;;6.35;2.78;;;;;;;0.18;100.00;98636.34;5191704;28;20030;-82
2021/11/28 04:07:09;;;;;;;7.05;2.72;;;;;;;0.09;100.00;98639.16;5194986;28;20028;-82
2021/11/28 04:09:39;;;;;;;6.90;2.55;;;;;;;0.03;100.00;98639.28;5207081;28;20033;-82
2021/11/28 04:12:10;;;;;;;7.43;2.63;;;;;;;-0.18;100.00;98640.69;5199389;28;20093;-83
2021/11/28 04:14:42;;;;;;;5.57;2.80;;;;;;;-0.11;100.00;98642.22;5206951;28;20025;-83
2021/11/28 04:17:12;;;;;;;6.07;2.72;;;;;;;-0.03;100.00;98653.97;5203614;28;20040;-83
2021/11/28 04:19:42;;;;;;;6.97;2.85;;;;;;;-0.08;100.00;98665.28;5200624;28;20120;-83
2021/11/28 04:22:13;;;;;;;7.40;3.00;;;;;;;-0.21;100.00;98659.56;5200885;28;20030;-82
2021/11/28 04:24:43;;;;;;;5.78;2.92;;;;;;;-0.11;100.00;98671.31;5202615;28;20033;-82
2021/11/28 04:27:14;;;;;;;5.65;2.95;;;;;;;-0.12;100.00;98669.63;5204002;28;20034;-83
2021/11/28 04:29:45;;;;;;;5.43;2.85;;;;;;;-0.03;100.00;98658.28;5198748;28;20493;-83
2021/11/28 04:32:16;;;;;;;6.07;3.08;;;;;;;-0.06;100.00;98666.06;5202131;28;20049;-83
2021/11/28 04:34:47;;;;;;;6.05;2.83;;;;;;;0.04;100.00;98671.75;5197214;28;20562;-83
2021/11/28 04:37:17;;;;;;;5.57;2.45;;;;;;;-0.16;100.00;98677.41;5195374;28;20117;-82
2021/11/28 04:39:48;;;;;;;4.80;2.47;;;;;;;-0.26;100.00;98665.66;5198669;28;20026;-82
2021/11/28 04:42:18;;;;;;;7.65;2.70;;;;;;;-0.32;100.00;98678.66;5202212;28;20681;-81
2021/11/28 04:44:49;;;;;;;6.22;2.70;;;;;;;-0.23;100.00;98678.47;5198661;28;20063;-83
2021/11/28 04:47:20;;;;;;;6.40;2.90;;;;;;;-0.22;100.00;98675.00;5203428;28;20030;-83
2021/11/28 04:49:51;;;;;;;6.03;2.60;;;;;;;-0.23;100.00;98676.72;5200830;28;20407;-83
2021/11/28 04:52:21;;;;;;;8.20;2.88;;;;;;;-0.13;100.00;98680.78;5206148;28;20089;-82
2021/11/28 04:54:52;;;;;;;4.13;2.17;;;;;;;-0.23;100.00;98681.03;5208890;28;20060;-83
2021/11/28 04:57:22;;;;;;;7.18;2.80;;;;;;;-0.47;100.00;98682.41;5198923;28;20039;-83
2021/11/28 04:59:52;;;;;;;4.50;2.40;;;;;;;-0.40;100.00;98683.94;5200096;28;20030;-83
2021/11/28 05:02:23;;;;;;;4.43;2.58;;;;;;;-0.60;100.00;98680.13;5209829;28;20022;-83
2021/11/28 05:04:53;;;;;;;7.00;2.72;;;;;;;-0.63;100.00;98688.75;5204898;28;20026;-83
2021/11/28 05:07:24;;;;;;;9.32;2.78;;;;;;;-0.62;100.00;98689.59;5205482;28;20073;-83
2021/11/28 05:09:54;;;;;;;9.98;2.58;;;;;;;-0.62;100.00;98681.88;5207026;28;20021;-82
2021/11/28 05:12:24;;;;;;;6.15;2.97;;;;;;;-0.49;100.00;98678.19;5207885;28;20179;-82
2021/11/28 05:14:55;;;;;;;7.47;2.85;;;;;;;-0.55;100.00;98678.34;5211862;28;20061;-83
2021/11/28 05:17:25;;;;;;;7.43;2.88;;;;;;;-0.59;100.00;98679.28;5197923;28;20036;-83
2021/11/28 05:19:56;;;;;;;5.20;2.60;;;;;;;-0.71;100.00;98684.66;5194685;28;20032;-83
2021/11/28 05:22:26;;;;;;;7.70;2.72;;;;;;;-0.71;100.00;98692.38;5195160;28;20025;-84
2021/11/28 05:24:57;;;;;;;8.65;2.80;;;;;;;-0.63;100.00;98685.34;5194877;28;20026;-83
2021/11/28 05:27:27;;;;;;;6.22;2.60;;;;;;;-0.43;100.00;98684.03;5197467;28;20059;-83
2021/11/28 05:29:58;;;;;;;6.38;2.97;;;;;;;-0.54;100.00;98688.53;5206416;28;20085;-83
2021/11/28 05:32:29;;;;;;;4.43;2.40;;;;;;;-0.61;100.00;98689.56;5197045;28;20033;-84
2021/11/28 05:34:59;;;;;;;7.60;3.13;;;;;;;-0.54;100.00;98687.72;5204935;28;20107;-83
2021/11/28 05:37:30;;;;;;;6.88;2.83;;;;;;;-0.63;100.00;98695.59;5193529;28;20026;-83
2021/11/28 05:40:02;;;;;;;4.60;2.50;;;;;;;-0.68;100.00;98702.53;5203858;28;20479;-82
2021/11/28 05:42:32;;;;;;;8.15;2.92;;;;;;;-0.63;100.00;98687.91;5193651;28;20033;-82
2021/11/28 05:45:04;;;;;;;4.57;2.83;;;;;;;-0.67;100.00;98688.84;5184228;28;20101;-81
2021/11/28 05:47:34;;;;;;;6.57;3.30;;;;;;;-0.63;100.00;98682.78;5187218;28;20512;-83
2021/11/28 05:50:06;;;;;;;7.82;3.70;;;;;;;-0.44;100.00;98681.50;5205825;28;20049;-83
2021/11/28 05:52:37;;;;;;;12.57;4.35;;;;;;;-0.33;100.00;98680.41;5215818;28;20635;-82
2021/11/28 05:55:08;;;;;;;9.98;4.70;;;;;;;-0.22;100.00;98680.97;5213232;28;20025;-83
2021/11/28 05:57:39;;;;;;;12.02;4.63;;;;;;;-0.10;100.00;98673.00;5202529;28;20033;-83
2021/11/28 06:00:13;;;;;;;13.88;4.80;;;;;;;-0.04;100.00;98667.69;5200675;28;20022;-83
2021/11/28 06:02:44;;;;;;;9.98;4.90;;;;;;;0.06;100.00;98659.72;5194695;28;20483;-83
2021/11/28 06:05:14;;;;;;;12.68;5.20;;;;;;;0.16;100.00;98658.63;5193573;28;20037;-83
2021/11/28 06:07:44;;;;;;;13.02;5.28;;;;;;;0.27;100.00;98659.22;5193769;28;20041;-83
2021/11/28 06:10:16;;;;;;;13.38;5.68;;;;;;;0.35;100.00;98662.41;5205086;28;20087;-83
2021/11/28 06:12:46;;;;;;;11.95;5.43;;;;;;;0.39;100.00;98663.19;5198726;28;20017;-83
2021/11/28 06:15:17;;;;;;;9.85;5.63;;;;;;;0.42;100.00;98666.50;5198397;28;20076;-83
2021/11/28 06:17:47;;;;;;;12.32;5.40;;;;;;;0.46;100.00;98675.84;5203275;28;20040;-83
2021/11/28 06:20:17;;;;;;;9.82;5.50;;;;;;;0.45;100.00;98684.44;5197752;28;20031;-83
2021/11/28 06:22:49;;;;;;;11.40;5.55;;;;;;;0.42;100.00;98683.66;5207059;28;20025;-83
2021/11/28 06:25:21;;;;;;;12.88;5.72;;;;;;;0.36;100.00;98687.22;5205799;28;20031;-83
2021/11/28 06:27:51;;;;;;;8.95;5.22;;;;;;;0.34;100.00;98696.69;5204426;28;20108;-84
2021/11/28 06:30:22;;;;;;;13.90;5.50;;;;;;;0.35;100.00;98687.28;5199877;28;20403;-84
2021/11/28 06:32:52;;;;;;;13.30;5.43;;;;;;;0.31;100.00;98689.06;5202568;28;20056;-83
2021/11/28 06:35:22;;;;;;;9.65;5.88;;;;;;;0.35;100.00;98693.25;5193035;28;20029;-84
2021/11/28 06:37:53;;;;;;;26.33;8.45;;;;;;;0.35;100.00;98693.25;5203747;28;20083;-84
2021/11/28 06:40:23;;;;;;;30.23;10.60;;;;;;;0.41;100.00;98695.66;5211375;28;20033;-83
2021/11/28 06:42:54;;;;;;;44.83;16.00;;;;;;;0.38;100.00;98698.28;5195324;28;20032;-82
2021/11/28 06:45:24;;;;;;;48.95;16.98;;;;;;;0.43;100.00;98706.75;5194583;28;20072;-84
2021/11/28 06:47:55;;;;;;;68.15;22.58;;;;;;;0.38;100.00;98708.56;5182796;28;20049;-83
2021/11/28 06:50:26;;;;;;;39.53;15.40;;;;;;;0.29;100.00;98713.94;5188363;28;20044;-84
2021/11/28 06:52:56;;;;;;;12.60;6.05;;;;;;;0.23;100.00;98723.53;5208689;28;20029;-84
2021/11/28 06:55:26;;;;;;;8.07;4.43;;;;;;;0.19;100.00;98738.16;5204008;28;20111;-84
2021/11/28 06:57:57;;;;;;;9.38;4.78;;;;;;;0.11;100.00;98745.22;5192129;28;20053;-84
2021/11/28 07:00:27;;;;;;;10.68;4.60;;;;;;;-0.06;100.00;98745.63;5201094;28;20040;-84
2021/11/28 07:02:58;;;;;;;12.43;5.78;;;;;;;-0.07;100.00;98749.09;5206904;28;20018;-84
2021/11/28 07:05:28;;;;;;;11.43;4.97;;;;;;;-0.08;100.00;98744.81;5211855;28;20041;-84
2021/11/28 07:07:59;;;;;;;12.65;4.75;;;;;;;-0.10;100.00;98749.97;5203131;28;20040;-84
2021/11/28 07:10:29;;;;;;;10.63;5.35;;;;;;;-0.14;100.00;98743.25;5193892;28;20024;-83
2021/11/28 07:13:00;;;;;;;9.65;4.68;;;;;;;-0.03;100.00;98748.13;5194350;28;20531;-84
2021/11/28 07:15:30;;;;;;;7.95;4.70;;;;;;;-0.03;100.00;98752.38;5208211;28;20037;-84
2021/11/28 07:18:00;;;;;;;8.45;4.90;;;;;;;0.01;100.00;98764.25;5214074;28;20287;-84
2021/11/28 07:20:33;;;;;;;9.13;4.68;;;;;;;-0.03;100.00;98758.41;5213238;28;20091;-84
2021/11/28 07:23:03;;;;;;;9.40;4.28;;;;;;;-0.08;100.00;98752.53;5210622;28;20088;-83
2021/11/28 07:25:34;;;;;;;12.20;4.45;;;;;;;-0.07;100.00;98759.34;5192797;28;20026;-84
2021/11/28 07:28:04;;;;;;;7.88;4.60;;;;;;;-0.03;100.00;98757.50;5193387;28;20030;-84
2021/11/28 07:30:35;;;;;;;8.48;4.03;;;;;;;0.02;100.00;98760.81;5193808;28;20018;-84
2021/11/28 07:33:05;;;;;;;9.82;4.53;;;;;;;0.28;100.00;98761.06;5194667;28;20025;-84
2021/11/28 07:35:36;;;;;;;8.30;4.47;;;;;;;0.31;100.00;98758.41;5196193;28;20234;-84
2021/11/28 07:38:06;;;;;;;10.85;4.35;;;;;;;0.32;100.00;98754.09;5195188;28;20030;-85
2021/11/28 07:40:36;;;;;;;8.60;4.30;;;;;;;0.22;100.00;98763.75;5195908;28;20038;-84
2021/11/28 07:43:07;;;;;;;10.10;4.50;;;;;;;0.46;100.00;98763.19;5194206;28;20056;-84
2021/11/28 07:45:37;;;;;;;9.43;4.32;;;;;;;0.93;100.00;98760.22;5190549;28;20030;-83
2021/11/28 07:48:09;;;;;;;7.38;4.10;;;;;;;1.80;100.00;98748.28;5184021;28;20026;-84
2021/11/28 07:50:40;;;;;;;8.77;4.30;;;;;;;2.49;100.00;98750.41;5189949;28;20026;-83
2021/11/28 07:53:11;;;;;;;7.05;3.97;;;;;;;3.08;100.00;98751.78;5199303;28;20022;-84
2021/11/28 07:55:42;;;;;;;6.18;3.10;;;;;;;3.64;95.25;98739.34;5208786;28;20033;-84
2021/11/28 08:18:45;;;;;;;;;;;;;;;;;;;;;
2021/11/28 08:21:39;;;;;;;7.57;3.97;;;;;;;6.40;81.78;98740.31;5162681;28;20038;-83
2021/11/28 08:24:33;;;;;;;8.25;4.10;;;;;;;5.59;84.72;98741.53;5133844;28;20119;-83
2021/11/28 08:27:27;;;;;;;8.65;4.50;;;;;;;4.28;91.94;98745.50;5135642;28;20611;-82
2021/11/28 08:30:08;;;;;;;9.85;5.20;;;;;;;4.09;94.06;98747.94;5165246;28;20049;-82
2021/11/28 08:32:41;;;;;;;10.65;4.90;;;;;;;3.61;97.51;98749.81;5179236;28;20465;-83
2021/11/28 08:35:12;;;;;;;10.50;5.43;;;;;;;3.78;95.93;98755.19;5193180;28;20031;-82
2021/11/28 08:37:43;;;;;;;7.38;5.05;;;;;;;3.72;95.91;98751.97;5176648;28;20021;-82
2021/11/28 08:40:17;;;;;;;10.57;5.18;;;;;;;3.51;97.95;98757.94;5179347;28;20488;-82
2021/11/28 08:42:48;;;;;;;10.82;5.78;;;;;;;3.38;99.19;98756.69;5180897;28;20033;-82
2021/11/28 08:45:19;;;;;;;12.80;5.57;;;;;;;3.22;100.00;98765.06;5185215;28;20261;-82
2021/11/28 08:47:49;;;;;;;11.73;6.07;;;;;;;3.32;100.00;98762.09;5171977;28;20035;-81
2021/11/28 08:50:20;;;;;;;10.63;6.00;;;;;;;3.17;100.00;98756.66;5173397;28;20027;-82
2021/11/28 08:52:51;;;;;;;11.57;6.13;;;;;;;3.09;100.00;98753.47;5167221;28;20022;-81
2021/11/28 08:55:21;;;;;;;11.25;6.53;;;;;;;2.95;100.00;98755.69;5178625;28;20030;-81
2021/11/28 08:57:52;;;;;;;11.98;6.55;;;;;;;2.95;100.00;98766.00;5183321;28;20103;-81
2021/11/28 09:00:22;;;;;;;12.65;6.78;;;;;;;2.90;100.00;98767.91;5188290;28;20405;-81
2021/11/28 09:02:53;;;;;;;11.60;6.55;;;;;;;3.00;100.00;98766.72;5184632;28;20037;-82
2021/11/28 09:05:24;;;;;;;11.98;7.07;;;;;;;2.93;100.00;98778.13;5183726;28;20038;-82
2021/11/28 09:07:57;;;;;;;12.02;6.82;;;;;;;2.91;100.00;98779.91;5181309;28;20097;-81
2021/11/28 09:10:28;;;;;;;14.45;7.47;;;;;;;2.99;100.00;98777.94;5199411;28;20017;-81
2021/11/28 09:12:59;;;;;;;13.57;7.13;;;;;;;2.97;100.00;98772.81;5187614;28;20072;-81
2021/11/28 09:15:32;;;;;;;14.52;7.50;;;;;;;3.23;100.00;98782.22;5181125;28;20029;-82
2021/11/28 09:18:05;;;;;;;11.25;6.90;;;;;;;3.43;100.00;98780.63;5174069;28;20042;-81
2021/11/28 09:20:38;;;;;;;10.82;6.53;;;;;;;3.56;100.00;98786.19;5174672;28;20022;-82
2021/11/28 09:25:42;;;;;;;11.80;6.53;;;;;;;3.78;100.00;98783.59;5177021;28;20024;-82
2021/11/28 09:28:14;;;;;;;11.23;5.95;;;;;;;3.58;100.00;98792.13;5178256;28;20041;-82
2021/11/28 09:30:47;;;;;;;10.90;5.72;;;;;;;3.60;100.00;98786.84;5178008;28;20022;-82
2021/11/28 09:33:17;;;;;;;13.90;6.03;;;;;;;3.45;100.00;98788.31;5181956;28;20045;-82
2021/11/28 09:35:48;;;;;;;11.02;6.20;;;;;;;3.38;100.00;98792.84;5181882;28;20097;-82
2021/11/28 09:38:18;;;;;;;10.95;6.38;;;;;;;3.39;100.00;98788.53;5178364;28;20038;-82
2021/11/28 09:40:50;;;;;;;11.88;6.43;;;;;;;3.50;100.00;98787.25;5179503;28;20046;-82
2021/11/28 09:43:23;;;;;;;11.07;6.30;;;;;;;3.63;100.00;98784.16;5180136;28;20053;-82
2021/11/28 09:45:55;;;;;;;11.07;6.43;;;;;;;3.58;100.00;98789.56;5175028;28;20029;-82
2021/11/28 09:48:26;;;;;;;12.45;5.90;;;;;;;3.71;100.00;98786.47;5178617;28;20049;-82
2021/11/28 09:50:57;;;;;;;10.93;6.43;;;;;;;3.42;100.00;98793.59;5183172;28;20532;-82
2021/11/28 09:53:29;;;;;;;11.68;6.85;;;;;;;3.55;100.00;98792.25;5179089;28;20069;-82
2021/11/28 09:56:00;;;;;;;12.10;6.20;;;;;;;3.30;100.00;98783.69;5179393;28;20033;-82
2021/11/28 09:58:31;;;;;;;11.65;6.35;;;;;;;3.20;100.00;98792.66;5180020;28;20073;-82
2021/11/28 10:01:02;;;;;;;11.52;6.60;;;;;;;3.26;100.00;98787.28;5175010;28;20030;-82
2021/11/28 10:03:33;;;;;;;11.63;6.50;;;;;;;3.45;100.00;98775.41;5175994;28;20030;-82
2021/11/28 10:06:03;;;;;;;10.32;6.63;;;;;;;3.44;100.00;98781.47;5173661;28;20048;-82
2021/11/28 10:08:34;;;;;;;11.02;6.15;;;;;;;3.32;100.00;98771.56;5174453;28;20081;-82
2021/11/28 10:11:24;;;;;;;12.50;6.55;;;;;;;3.49;100.00;98764.91;5175658;28;20444;-82
2021/11/28 10:13:54;;;;;;;14.88;6.00;;;;;;;3.48;100.00;98768.41;5174488;28;20042;-82
2021/11/28 10:16:24;;;;;;;11.82;6.63;;;;;;;3.42;100.00;98763.47;5179384;28;20048;-82
2021/11/28 10:18:55;;;;;;;10.27;6.30;;;;;;;3.51;100.00;98767.44;5194726;28;20030;-82
2021/11/28 10:21:27;;;;;;;9.80;5.97;;;;;;;3.47;100.00;98760.69;5179924;28;20672;-82
2021/11/28 10:24:10;;;;;;;14.23;6.55;;;;;;;3.58;100.00;98760.25;5181177;28;20496;-82
2021/11/28 10:27:06;;;;;;;11.90;6.63;;;;;;;3.68;100.00;98755.59;5178439;28;20061;-82
2021/11/28 10:29:40;;;;;;;11.07;6.03;;;;;;;3.95;100.00;98752.81;5175021;28;20029;-82
2021/11/28 10:32:14;;;;;;;11.95;6.30;;;;;;;4.00;100.00;98750.91;5176239;28;20029;-82
2021/11/28 10:34:48;;;;;;;11.50;6.95;;;;;;;4.25;100.00;98750.75;5187286;28;20140;-82
2021/11/28 10:37:22;;;;;;;8.83;4.70;;;;;;;4.49;100.00;98740.28;5174129;28;20049;-82
2021/11/28 10:39:58;;;;;;;15.27;6.60;;;;;;;4.40;100.00;98745.84;5180628;28;20066;-81
2021/11/28 10:42:34;;;;;;;14.80;6.95;;;;;;;4.29;100.00;98745.41;5168193;28;20029;-82
2021/11/28 10:45:16;;;;;;;13.02;6.85;;;;;;;4.38;100.00;98742.47;5173808;28;20496;-82
2021/11/28 10:47:56;;;;;;;13.60;7.10;;;;;;;4.18;100.00;98747.59;5193643;28;20030;-81
2021/11/28 10:50:27;;;;;;;13.75;6.45;;;;;;;4.27;100.00;98749.81;5185700;28;20109;-81
2021/11/28 10:53:16;;;;;;;14.82;6.82;;;;;;;4.35;100.00;98746.91;5178731;28;20058;-81
2021/11/28 10:55:53;;;;;;;14.52;6.40;;;;;;;4.37;100.00;98742.53;5168005;28;20834;-82
2021/11/28 10:58:26;;;;;;;14.40;6.30;;;;;;;4.43;100.00;98742.31;5172567;28;20034;-81
2021/11/28 11:00:57;;;;;;;17.02;7.07;;;;;;;4.42;100.00;98733.69;5179010;28;20067;-81
2021/11/28 11:03:33;;;;;;;15.73;7.35;;;;;;;4.52;100.00;98722.09;5170975;28;20038;-81
2021/11/28 11:06:17;;;;;;;21.55;7.70;;;;;;;4.39;100.00;98731.22;5180809;28;20508;-81
2021/11/28 11:08:53;;;;;;;17.70;6.57;;;;;;;4.45;100.00;98725.81;5185461;28;20030;-81
2021/11/28 11:11:24;;;;;;;9.93;5.43;;;;;;;4.42;100.00;98738.84;5175364;28;20038;-81
2021/11/28 11:14:01;;;;;;;12.50;6.15;;;;;;;4.56;100.00;98738.28;5168471;28;20030;-81
2021/11/28 11:17:02;;;;;;;12.15;6.22;;;;;;;4.72;99.39;98735.03;5181246;28;20042;-81
2021/11/28 11:19:47;;;;;;;12.70;5.93;;;;;;;4.74;99.90;98734.94;5168750;28;20024;-81
2021/11/28 11:22:29;;;;;;;19.00;6.30;;;;;;;4.67;99.13;98730.94;5178984;28;20042;-81
2021/11/28 11:25:15;;;;;;;16.33;6.72;;;;;;;4.79;98.56;98726.09;5181681;28;20041;-81
2021/11/28 11:27:48;;;;;;;14.77;6.60;;;;;;;4.68;97.11;98727.44;5179502;28;20026;-82
2021/11/28 11:30:23;;;;;;;10.13;5.65;;;;;;;4.58;99.42;98732.16;5166917;28;20042;-81
2021/11/28 11:33:01;;;;;;;13.25;6.22;;;;;;;4.48;100.00;98736.00;5177859;28;20025;-82
2021/11/28 11:35:35;;;;;;;16.10;7.10;;;;;;;4.41;100.00;98736.31;5175477;28;20034;-81
2021/11/28 11:38:14;;;;;;;12.80;6.60;;;;;;;4.36;100.00;98739.13;5175166;28;20030;-81
2021/11/28 11:40:45;;;;;;;13.00;6.85;;;;;;;4.40;100.00;98744.97;5177487;28;20053;-82
2021/11/28 11:43:18;;;;;;;14.43;6.55;;;;;;;4.58;99.54;98741.66;5178687;28;20037;-81
2021/11/28 11:45:49;;;;;;;12.13;6.28;;;;;;;4.49;100.00;98734.28;5168591;28;20357;-81
2021/11/28 11:48:19;;;;;;;11.73;5.97;;;;;;;4.50;98.54;98739.38;5169123;28;20023;-81
2021/11/28 11:50:50;;;;;;;13.27;6.25;;;;;;;4.51;100.00;98745.41;5178092;28;20048;-81
2021/11/28 11:53:20;;;;;;;12.82;6.40;;;;;;;4.71;99.03;98743.69;5177360;28;20068;-81
2021/11/28 11:55:51;;;;;;;15.90;6.00;;;;;;;4.81;96.98;98744.97;5169502;28;20042;-81
2021/11/28 11:58:33;;;;;;;11.55;6.38;;;;;;;5.04;96.72;98737.09;5173677;28;20041;-81
2021/11/28 12:01:17;;;;;;;12.30;5.90;;;;;;;4.93;95.99;98728.94;5175029;28;20578;-81
2021/11/28 12:03:51;;;;;;;11.52;5.63;;;;;;;5.10;95.74;98723.88;5170206;28;20049;-80
2021/11/28 12:06:47;;;;;;;13.27;6.63;;;;;;;5.19;96.67;98731.22;5192019;28;20049;-81
2021/11/28 12:09:32;;;;;;;11.00;5.85;;;;;;;5.10;95.34;98723.88;5171753;28;20045;-81
2021/11/28 12:12:06;;;;;;;11.85;5.55;;;;;;;5.07;96.00;98730.94;5185948;28;20041;-81
2021/11/28 12:14:37;;;;;;;12.05;5.65;;;;;;;4.97;96.16;98730.47;5165817;28;20491;-81
2021/11/28 12:17:39;;;;;;;13.10;6.65;;;;;;;4.94;96.16;98734.97;5171464;28;20042;-81
2021/11/28 12:20:13;;;;;;;13.40;6.47;;;;;;;4.85;97.39;98736.19;5170210;28;20030;-81
2021/11/28 12:22:48;;;;;;;10.50;5.68;;;;;;;4.94;98.27;98725.44;5167421;28;20114;-81